sensor_id;sensor_type;location;lat;lon;timestamp;P1;durP1;ratioP1;P2;durP2;ratioP2
49834;SDS011;35729;52.090;13.162;2023-04-03T00:01:21;6.75;;;2.00;;
49834;SDS011;35729;52.090;13.162;2023-04-03T00:03:49;4.75;;;1.85;;
49834;SDS011;35729;52.090;13.162;2023-04-03T00:06:18;6.97;;;1.67;;
49834;SDS011;35729;52.090;13.162;2023-04-03T00:08:47;7.32;;;1.60;;
49834;SDS011;35729;52.090;13.162;2023-04-03T00:11:18;8.57;;;2.17;;
49834;SDS011;35729;52.090;13.162;2023-04-03T00:13:47;4.57;;;1.80;;
49834;SDS011;35729;52.090;13.162;2023-04-03T00:16:16;7.85;;;2.10;;
49834;SDS011;35729;52.090;13.162;2023-04-03T00:18:45;6.15;;;2.33;;
49834;SDS011;35729;52.090;13.162;2023-04-03T00:21:13;10.23;;;2.95;;
49834;SDS011;35729;52.090;13.162;2023-04-03T00:23:42;8.18;;;3.40;;
49834;SDS011;35729;52.090;13.162;2023-04-03T00:26:10;8.48;;;2.75;;
49834;SDS011;35729;52.090;13.162;2023-04-03T00:28:42;6.03;;;2.70;;
49834;SDS011;35729;52.090;13.162;2023-04-03T00:31:10;10.60;;;2.72;;
49834;SDS011;35729;52.090;13.162;2023-04-03T00:33:41;6.03;;;2.08;;
49834;SDS011;35729;52.090;13.162;2023-04-03T00:36:10;9.60;;;1.83;;
49834;SDS011;35729;52.090;13.162;2023-04-03T00:38:40;7.10;;;2.10;;
49834;SDS011;35729;52.090;13.162;2023-04-03T00:41:08;4.85;;;2.05;;
49834;SDS011;35729;52.090;13.162;2023-04-03T00:43:37;8.82;;;2.40;;
49834;SDS011;35729;52.090;13.162;2023-04-03T00:46:08;9.60;;;2.05;;
49834;SDS011;35729;52.090;13.162;2023-04-03T00:48:37;12.15;;;2.53;;
49834;SDS011;35729;52.090;13.162;2023-04-03T00:51:10;5.50;;;1.83;;
49834;SDS011;35729;52.090;13.162;2023-04-03T00:53:42;7.18;;;2.30;;
49834;SDS011;35729;52.090;13.162;2023-04-03T00:56:15;5.38;;;2.00;;
49834;SDS011;35729;52.090;13.162;2023-04-03T00:58:47;8.30;;;1.80;;
49834;SDS011;35729;52.090;13.162;2023-04-03T01:01:24;4.60;;;1.60;;
49834;SDS011;35729;52.090;13.162;2023-04-03T01:03:54;6.85;;;2.03;;
49834;SDS011;35729;52.090;13.162;2023-04-03T01:06:24;5.85;;;1.98;;
49834;SDS011;35729;52.090;13.162;2023-04-03T01:08:56;7.38;;;1.60;;
49834;SDS011;35729;52.090;13.162;2023-04-03T01:11:24;7.68;;;1.80;;
49834;SDS011;35729;52.090;13.162;2023-04-03T01:13:53;5.20;;;1.80;;
49834;SDS011;35729;52.090;13.162;2023-04-03T01:16:24;5.53;;;2.20;;
49834;SDS011;35729;52.090;13.162;2023-04-03T01:18:55;7.47;;;1.60;;
49834;SDS011;35729;52.090;13.162;2023-04-03T01:21:30;5.72;;;2.10;;
49834;SDS011;35729;52.090;13.162;2023-04-03T01:24:25;4.90;;;1.65;;
49834;SDS011;35729;52.090;13.162;2023-04-03T01:27:06;6.95;;;1.98;;
49834;SDS011;35729;52.090;13.162;2023-04-03T01:29:38;9.23;;;2.00;;
49834;SDS011;35729;52.090;13.162;2023-04-03T01:32:11;6.72;;;1.83;;
49834;SDS011;35729;52.090;13.162;2023-04-03T01:34:39;8.35;;;2.25;;
49834;SDS011;35729;52.090;13.162;2023-04-03T01:37:08;3.85;;;1.75;;
49834;SDS011;35729;52.090;13.162;2023-04-03T01:39:36;5.82;;;2.05;;
49834;SDS011;35729;52.090;13.162;2023-04-03T01:42:05;8.75;;;2.90;;
49834;SDS011;35729;52.090;13.162;2023-04-03T01:44:33;8.52;;;2.00;;
49834;SDS011;35729;52.090;13.162;2023-04-03T01:47:02;5.28;;;1.63;;
49834;SDS011;35729;52.090;13.162;2023-04-03T01:49:35;6.90;;;2.47;;
49834;SDS011;35729;52.090;13.162;2023-04-03T01:52:04;8.25;;;2.00;;
49834;SDS011;35729;52.090;13.162;2023-04-03T01:54:32;5.55;;;1.98;;
49834;SDS011;35729;52.090;13.162;2023-04-03T01:57:01;6.35;;;2.00;;
49834;SDS011;35729;52.090;13.162;2023-04-03T01:59:30;6.30;;;2.50;;
49834;SDS011;35729;52.090;13.162;2023-04-03T02:01:58;6.72;;;2.15;;
49834;SDS011;35729;52.090;13.162;2023-04-03T02:04:27;5.95;;;1.77;;
49834;SDS011;35729;52.090;13.162;2023-04-03T02:06:58;3.95;;;1.58;;
49834;SDS011;35729;52.090;13.162;2023-04-03T02:09:26;6.25;;;2.10;;
49834;SDS011;35729;52.090;13.162;2023-04-03T02:11:55;3.85;;;1.90;;
49834;SDS011;35729;52.090;13.162;2023-04-03T02:14:23;3.80;;;2.10;;
49834;SDS011;35729;52.090;13.162;2023-04-03T02:16:52;5.80;;;2.08;;
49834;SDS011;35729;52.090;13.162;2023-04-03T02:19:21;8.70;;;2.70;;
49834;SDS011;35729;52.090;13.162;2023-04-03T02:21:49;4.50;;;1.60;;
49834;SDS011;35729;52.090;13.162;2023-04-03T02:24:27;9.70;;;2.58;;
49834;SDS011;35729;52.090;13.162;2023-04-03T02:27:04;9.50;;;2.22;;
49834;SDS011;35729;52.090;13.162;2023-04-03T02:29:32;8.98;;;1.90;;
49834;SDS011;35729;52.090;13.162;2023-04-03T02:32:01;8.50;;;2.38;;
49834;SDS011;35729;52.090;13.162;2023-04-03T02:34:29;7.10;;;1.80;;
49834;SDS011;35729;52.090;13.162;2023-04-03T02:36:58;7.47;;;2.30;;
49834;SDS011;35729;52.090;13.162;2023-04-03T02:39:29;5.30;;;2.55;;
49834;SDS011;35729;52.090;13.162;2023-04-03T02:41:57;6.68;;;2.30;;
49834;SDS011;35729;52.090;13.162;2023-04-03T02:44:25;9.70;;;2.45;;
49834;SDS011;35729;52.090;13.162;2023-04-03T02:46:54;12.48;;;2.13;;
49834;SDS011;35729;52.090;13.162;2023-04-03T02:49:22;4.15;;;1.80;;
49834;SDS011;35729;52.090;13.162;2023-04-03T02:51:51;6.78;;;2.22;;
49834;SDS011;35729;52.090;13.162;2023-04-03T02:54:19;7.07;;;3.40;;
49834;SDS011;35729;52.090;13.162;2023-04-03T02:56:51;6.43;;;1.92;;
49834;SDS011;35729;52.090;13.162;2023-04-03T02:59:19;7.07;;;2.00;;
49834;SDS011;35729;52.090;13.162;2023-04-03T03:01:48;6.72;;;1.92;;
49834;SDS011;35729;52.090;13.162;2023-04-03T03:04:16;8.65;;;1.98;;
49834;SDS011;35729;52.090;13.162;2023-04-03T03:06:45;4.95;;;2.05;;
49834;SDS011;35729;52.090;13.162;2023-04-03T03:09:14;7.95;;;2.05;;
49834;SDS011;35729;52.090;13.162;2023-04-03T03:11:42;11.57;;;3.97;;
49834;SDS011;35729;52.090;13.162;2023-04-03T03:14:13;11.45;;;2.42;;
49834;SDS011;35729;52.090;13.162;2023-04-03T03:16:42;6.55;;;2.17;;
49834;SDS011;35729;52.090;13.162;2023-04-03T03:19:10;7.32;;;2.20;;
49834;SDS011;35729;52.090;13.162;2023-04-03T03:21:39;6.15;;;1.77;;
49834;SDS011;35729;52.090;13.162;2023-04-03T03:24:14;6.90;;;2.00;;
49834;SDS011;35729;52.090;13.162;2023-04-03T03:26:49;5.80;;;1.60;;
49834;SDS011;35729;52.090;13.162;2023-04-03T03:29:20;6.50;;;1.90;;
49834;SDS011;35729;52.090;13.162;2023-04-03T03:31:48;6.65;;;1.88;;
49834;SDS011;35729;52.090;13.162;2023-04-03T03:34:17;5.45;;;2.40;;
49834;SDS011;35729;52.090;13.162;2023-04-03T03:36:45;6.53;;;2.15;;
49834;SDS011;35729;52.090;13.162;2023-04-03T03:39:14;6.05;;;1.60;;
49834;SDS011;35729;52.090;13.162;2023-04-03T03:41:43;4.53;;;1.88;;
49834;SDS011;35729;52.090;13.162;2023-04-03T03:44:11;4.25;;;1.77;;
49834;SDS011;35729;52.090;13.162;2023-04-03T03:46:42;5.90;;;1.90;;
49834;SDS011;35729;52.090;13.162;2023-04-03T03:49:11;5.70;;;2.33;;
49834;SDS011;35729;52.090;13.162;2023-04-03T03:51:40;5.60;;;1.75;;
49834;SDS011;35729;52.090;13.162;2023-04-03T03:54:09;6.38;;;1.67;;
49834;SDS011;35729;52.090;13.162;2023-04-03T03:56:37;5.78;;;1.98;;
49834;SDS011;35729;52.090;13.162;2023-04-03T03:59:06;5.28;;;1.98;;
49834;SDS011;35729;52.090;13.162;2023-04-03T04:01:34;5.95;;;1.60;;
49834;SDS011;35729;52.090;13.162;2023-04-03T04:04:06;7.47;;;2.65;;
49834;SDS011;35729;52.090;13.162;2023-04-03T04:06:34;10.30;;;2.60;;
49834;SDS011;35729;52.090;13.162;2023-04-03T04:09:03;8.90;;;2.38;;
49834;SDS011;35729;52.090;13.162;2023-04-03T04:11:31;6.47;;;2.58;;
49834;SDS011;35729;52.090;13.162;2023-04-03T04:14:00;7.05;;;1.92;;
49834;SDS011;35729;52.090;13.162;2023-04-03T04:16:28;9.15;;;2.75;;
49834;SDS011;35729;52.090;13.162;2023-04-03T04:18:57;5.25;;;1.80;;
49834;SDS011;35729;52.090;13.162;2023-04-03T04:21:28;3.17;;;1.60;;
49834;SDS011;35729;52.090;13.162;2023-04-03T04:23:56;8.65;;;1.60;;
49834;SDS011;35729;52.090;13.162;2023-04-03T04:26:25;6.63;;;2.60;;
49834;SDS011;35729;52.090;13.162;2023-04-03T04:28:53;10.65;;;1.95;;
49834;SDS011;35729;52.090;13.162;2023-04-03T04:31:22;6.13;;;1.90;;
49834;SDS011;35729;52.090;13.162;2023-04-03T04:33:50;5.60;;;1.55;;
49834;SDS011;35729;52.090;13.162;2023-04-03T04:36:19;6.72;;;1.92;;
49834;SDS011;35729;52.090;13.162;2023-04-03T04:38:50;11.15;;;2.35;;
49834;SDS011;35729;52.090;13.162;2023-04-03T04:41:20;7.22;;;1.80;;
49834;SDS011;35729;52.090;13.162;2023-04-03T04:43:49;5.30;;;2.20;;
49834;SDS011;35729;52.090;13.162;2023-04-03T04:46:18;14.95;;;4.57;;
49834;SDS011;35729;52.090;13.162;2023-04-03T04:48:46;9.95;;;3.97;;
49834;SDS011;35729;52.090;13.162;2023-04-03T04:51:15;13.73;;;5.20;;
49834;SDS011;35729;52.090;13.162;2023-04-03T04:53:44;10.40;;;6.25;;
49834;SDS011;35729;52.090;13.162;2023-04-03T04:56:15;14.60;;;5.95;;
49834;SDS011;35729;52.090;13.162;2023-04-03T04:58:43;13.73;;;6.97;;
49834;SDS011;35729;52.090;13.162;2023-04-03T05:01:12;16.13;;;7.53;;
49834;SDS011;35729;52.090;13.162;2023-04-03T05:03:40;19.63;;;8.57;;
49834;SDS011;35729;52.090;13.162;2023-04-03T05:06:09;21.20;;;9.50;;
49834;SDS011;35729;52.090;13.162;2023-04-03T05:08:38;19.90;;;8.98;;
49834;SDS011;35729;52.090;13.162;2023-04-03T05:11:06;10.88;;;5.45;;
49834;SDS011;35729;52.090;13.162;2023-04-03T05:13:37;14.65;;;5.75;;
49834;SDS011;35729;52.090;13.162;2023-04-03T05:16:06;6.70;;;4.35;;
49834;SDS011;35729;52.090;13.162;2023-04-03T05:18:34;6.45;;;3.60;;
49834;SDS011;35729;52.090;13.162;2023-04-03T05:21:03;13.65;;;3.05;;
49834;SDS011;35729;52.090;13.162;2023-04-03T05:23:32;8.15;;;2.80;;
49834;SDS011;35729;52.090;13.162;2023-04-03T05:26:01;13.32;;;3.00;;
49834;SDS011;35729;52.090;13.162;2023-04-03T05:28:29;7.82;;;3.00;;
49834;SDS011;35729;52.090;13.162;2023-04-03T05:31:01;7.03;;;2.53;;
49834;SDS011;35729;52.090;13.162;2023-04-03T05:33:29;11.95;;;2.88;;
49834;SDS011;35729;52.090;13.162;2023-04-03T05:36:01;5.05;;;2.58;;
49834;SDS011;35729;52.090;13.162;2023-04-03T05:38:31;9.48;;;2.55;;
49834;SDS011;35729;52.090;13.162;2023-04-03T05:41:00;8.98;;;3.60;;
49834;SDS011;35729;52.090;13.162;2023-04-03T05:43:28;5.43;;;2.78;;
49834;SDS011;35729;52.090;13.162;2023-04-03T05:45:57;9.95;;;3.17;;
49834;SDS011;35729;52.090;13.162;2023-04-03T05:48:28;7.45;;;2.50;;
49834;SDS011;35729;52.090;13.162;2023-04-03T05:50:57;7.63;;;2.25;;
49834;SDS011;35729;52.090;13.162;2023-04-03T05:53:27;9.32;;;2.95;;
49834;SDS011;35729;52.090;13.162;2023-04-03T05:55:59;8.30;;;2.33;;
49834;SDS011;35729;52.090;13.162;2023-04-03T05:58:27;9.63;;;2.25;;
49834;SDS011;35729;52.090;13.162;2023-04-03T06:00:55;9.68;;;2.95;;
49834;SDS011;35729;52.090;13.162;2023-04-03T06:03:27;6.03;;;2.55;;
49834;SDS011;35729;52.090;13.162;2023-04-03T06:05:56;7.32;;;2.58;;
49834;SDS011;35729;52.090;13.162;2023-04-03T06:08:25;6.68;;;2.97;;
49834;SDS011;35729;52.090;13.162;2023-04-03T06:10:54;8.88;;;2.72;;
49834;SDS011;35729;52.090;13.162;2023-04-03T06:13:22;7.72;;;2.55;;
49834;SDS011;35729;52.090;13.162;2023-04-03T06:15:50;10.32;;;2.50;;
49834;SDS011;35729;52.090;13.162;2023-04-03T06:18:19;4.68;;;2.40;;
49834;SDS011;35729;52.090;13.162;2023-04-03T06:20:50;11.95;;;1.95;;
49834;SDS011;35729;52.090;13.162;2023-04-03T06:23:40;12.77;;;2.58;;
49834;SDS011;35729;52.090;13.162;2023-04-03T06:26:16;10.60;;;2.97;;
49834;SDS011;35729;52.090;13.162;2023-04-03T06:28:44;7.55;;;3.03;;
49834;SDS011;35729;52.090;13.162;2023-04-03T06:31:13;6.88;;;2.22;;
49834;SDS011;35729;52.090;13.162;2023-04-03T06:33:42;9.57;;;2.33;;
49834;SDS011;35729;52.090;13.162;2023-04-03T06:36:13;9.52;;;3.15;;
49834;SDS011;35729;52.090;13.162;2023-04-03T06:41:13;11.98;;;3.05;;
49834;SDS011;35729;52.090;13.162;2023-04-03T06:43:42;6.28;;;2.10;;
49834;SDS011;35729;52.090;13.162;2023-04-03T06:46:14;6.95;;;2.35;;
49834;SDS011;35729;52.090;13.162;2023-04-03T06:48:43;7.10;;;2.75;;
49834;SDS011;35729;52.090;13.162;2023-04-03T06:51:18;7.28;;;2.33;;
49834;SDS011;35729;52.090;13.162;2023-04-03T06:53:48;12.32;;;3.13;;
49834;SDS011;35729;52.090;13.162;2023-04-03T06:56:18;8.30;;;2.40;;
49834;SDS011;35729;52.090;13.162;2023-04-03T06:58:47;9.13;;;3.13;;
49834;SDS011;35729;52.090;13.162;2023-04-03T07:01:17;7.18;;;2.17;;
49834;SDS011;35729;52.090;13.162;2023-04-03T07:03:46;6.32;;;2.03;;
49834;SDS011;35729;52.090;13.162;2023-04-03T07:06:18;10.57;;;2.35;;
49834;SDS011;35729;52.090;13.162;2023-04-03T07:08:47;8.18;;;2.63;;
49834;SDS011;35729;52.090;13.162;2023-04-03T07:11:16;6.55;;;1.75;;
49834;SDS011;35729;52.090;13.162;2023-04-03T07:13:45;8.48;;;1.95;;
49834;SDS011;35729;52.090;13.162;2023-04-03T07:16:14;4.35;;;1.70;;
49834;SDS011;35729;52.090;13.162;2023-04-03T07:18:42;2.28;;;1.60;;
49834;SDS011;35729;52.090;13.162;2023-04-03T07:21:11;9.18;;;2.00;;
49834;SDS011;35729;52.090;13.162;2023-04-03T07:23:42;6.28;;;1.90;;
49834;SDS011;35729;52.090;13.162;2023-04-03T07:26:11;6.38;;;1.73;;
49834;SDS011;35729;52.090;13.162;2023-04-03T07:28:46;6.15;;;1.63;;
49834;SDS011;35729;52.090;13.162;2023-04-03T07:31:15;7.75;;;1.85;;
49834;SDS011;35729;52.090;13.162;2023-04-03T07:33:45;7.07;;;1.58;;
49834;SDS011;35729;52.090;13.162;2023-04-03T07:36:15;9.85;;;2.95;;
49834;SDS011;35729;52.090;13.162;2023-04-03T07:38:48;7.22;;;2.17;;
49834;SDS011;35729;52.090;13.162;2023-04-03T07:41:17;4.00;;;1.33;;
49834;SDS011;35729;52.090;13.162;2023-04-03T07:43:48;6.93;;;1.65;;
49834;SDS011;35729;52.090;13.162;2023-04-03T07:46:18;8.70;;;1.90;;
49834;SDS011;35729;52.090;13.162;2023-04-03T07:48:46;3.33;;;1.30;;
49834;SDS011;35729;52.090;13.162;2023-04-03T07:51:15;4.43;;;1.50;;
49834;SDS011;35729;52.090;13.162;2023-04-03T07:53:43;6.43;;;1.58;;
49834;SDS011;35729;52.090;13.162;2023-04-03T07:56:14;6.13;;;1.30;;
49834;SDS011;35729;52.090;13.162;2023-04-03T07:58:45;5.30;;;1.50;;
49834;SDS011;35729;52.090;13.162;2023-04-03T08:01:14;3.95;;;1.65;;
49834;SDS011;35729;52.090;13.162;2023-04-03T08:03:42;6.72;;;1.63;;
49834;SDS011;35729;52.090;13.162;2023-04-03T08:06:11;6.47;;;1.80;;
49834;SDS011;35729;52.090;13.162;2023-04-03T08:08:40;5.25;;;1.55;;
49834;SDS011;35729;52.090;13.162;2023-04-03T08:11:09;3.78;;;2.22;;
49834;SDS011;35729;52.090;13.162;2023-04-03T08:13:41;6.30;;;1.77;;
49834;SDS011;35729;52.090;13.162;2023-04-03T08:16:10;7.28;;;1.20;;
49834;SDS011;35729;52.090;13.162;2023-04-03T08:18:40;2.78;;;1.40;;
49834;SDS011;35729;52.090;13.162;2023-04-03T08:21:09;5.65;;;1.45;;
49834;SDS011;35729;52.090;13.162;2023-04-03T08:23:39;4.55;;;1.60;;
49834;SDS011;35729;52.090;13.162;2023-04-03T08:26:09;4.78;;;1.95;;
49834;SDS011;35729;52.090;13.162;2023-04-03T08:28:41;3.70;;;1.58;;
49834;SDS011;35729;52.090;13.162;2023-04-03T08:31:12;5.07;;;1.40;;
49834;SDS011;35729;52.090;13.162;2023-04-03T08:33:43;6.22;;;1.70;;
49834;SDS011;35729;52.090;13.162;2023-04-03T08:36:16;4.25;;;1.42;;
49834;SDS011;35729;52.090;13.162;2023-04-03T08:38:46;5.97;;;1.40;;
49834;SDS011;35729;52.090;13.162;2023-04-03T08:41:16;6.85;;;1.73;;
49834;SDS011;35729;52.090;13.162;2023-04-03T08:43:59;8.23;;;2.22;;
49834;SDS011;35729;52.090;13.162;2023-04-03T08:46:35;5.07;;;1.88;;
49834;SDS011;35729;52.090;13.162;2023-04-03T08:49:15;4.30;;;2.17;;
49834;SDS011;35729;52.090;13.162;2023-04-03T08:51:51;5.20;;;1.38;;
49834;SDS011;35729;52.090;13.162;2023-04-03T08:54:24;3.42;;;1.08;;
49834;SDS011;35729;52.090;13.162;2023-04-03T08:56:56;7.72;;;1.80;;
49834;SDS011;35729;52.090;13.162;2023-04-03T08:59:32;7.05;;;1.45;;
49834;SDS011;35729;52.090;13.162;2023-04-03T09:02:04;4.85;;;1.20;;
49834;SDS011;35729;52.090;13.162;2023-04-03T09:04:42;4.43;;;1.10;;
49834;SDS011;35729;52.090;13.162;2023-04-03T09:07:13;5.78;;;1.30;;
49834;SDS011;35729;52.090;13.162;2023-04-03T09:09:48;3.92;;;1.27;;
49834;SDS011;35729;52.090;13.162;2023-04-03T09:12:19;6.55;;;1.33;;
49834;SDS011;35729;52.090;13.162;2023-04-03T09:14:57;5.40;;;1.48;;
49834;SDS011;35729;52.090;13.162;2023-04-03T09:17:36;4.28;;;1.35;;
49834;SDS011;35729;52.090;13.162;2023-04-03T09:20:17;2.72;;;1.17;;
49834;SDS011;35729;52.090;13.162;2023-04-03T09:22:52;5.35;;;1.13;;
49834;SDS011;35729;52.090;13.162;2023-04-03T09:25:21;5.82;;;1.42;;
49834;SDS011;35729;52.090;13.162;2023-04-03T09:27:53;4.47;;;1.88;;
49834;SDS011;35729;52.090;13.162;2023-04-03T09:30:24;3.75;;;1.40;;
49834;SDS011;35729;52.090;13.162;2023-04-03T09:32:54;2.53;;;0.90;;
49834;SDS011;35729;52.090;13.162;2023-04-03T09:35:25;3.20;;;1.17;;
49834;SDS011;35729;52.090;13.162;2023-04-03T09:37:58;3.33;;;1.10;;
49834;SDS011;35729;52.090;13.162;2023-04-03T09:40:31;4.22;;;1.25;;
49834;SDS011;35729;52.090;13.162;2023-04-03T09:45:54;2.17;;;0.93;;
49834;SDS011;35729;52.090;13.162;2023-04-03T09:48:24;1.73;;;0.77;;
49834;SDS011;35729;52.090;13.162;2023-04-03T09:50:54;2.25;;;1.10;;
49834;SDS011;35729;52.090;13.162;2023-04-03T09:53:26;3.05;;;1.02;;
49834;SDS011;35729;52.090;13.162;2023-04-03T09:56:09;5.20;;;1.42;;
49834;SDS011;35729;52.090;13.162;2023-04-03T09:58:48;2.30;;;1.25;;
49834;SDS011;35729;52.090;13.162;2023-04-03T10:01:25;4.32;;;1.40;;
49834;SDS011;35729;52.090;13.162;2023-04-03T10:04:06;3.15;;;1.15;;
49834;SDS011;35729;52.090;13.162;2023-04-03T10:06:37;2.67;;;1.00;;
49834;SDS011;35729;52.090;13.162;2023-04-03T10:09:19;2.95;;;0.98;;
49834;SDS011;35729;52.090;13.162;2023-04-03T10:11:59;4.28;;;0.98;;
49834;SDS011;35729;52.090;13.162;2023-04-03T10:14:29;3.42;;;1.27;;
49834;SDS011;35729;52.090;13.162;2023-04-03T10:17:03;3.33;;;1.30;;
49834;SDS011;35729;52.090;13.162;2023-04-03T10:19:43;5.67;;;1.97;;
49834;SDS011;35729;52.090;13.162;2023-04-03T10:22:18;4.78;;;1.50;;
49834;SDS011;35729;52.090;13.162;2023-04-03T10:24:54;7.53;;;2.47;;
49834;SDS011;35729;52.090;13.162;2023-04-03T10:27:32;4.90;;;1.38;;
49834;SDS011;35729;52.090;13.162;2023-04-03T10:30:16;2.42;;;1.27;;
49834;SDS011;35729;52.090;13.162;2023-04-03T10:33:05;2.10;;;1.13;;
49834;SDS011;35729;52.090;13.162;2023-04-03T10:35:48;2.47;;;0.90;;
49834;SDS011;35729;52.090;13.162;2023-04-03T10:38:31;2.25;;;1.10;;
49834;SDS011;35729;52.090;13.162;2023-04-03T10:41:08;4.82;;;1.30;;
49834;SDS011;35729;52.090;13.162;2023-04-03T10:43:47;3.08;;;1.05;;
49834;SDS011;35729;52.090;13.162;2023-04-03T10:46:22;3.47;;;1.10;;
49834;SDS011;35729;52.090;13.162;2023-04-03T10:49:05;2.67;;;1.10;;
49834;SDS011;35729;52.090;13.162;2023-04-03T10:51:46;4.32;;;1.40;;
49834;SDS011;35729;52.090;13.162;2023-04-03T10:54:20;4.32;;;1.52;;
49834;SDS011;35729;52.090;13.162;2023-04-03T10:59:23;4.75;;;1.95;;
49834;SDS011;35729;52.090;13.162;2023-04-03T11:01:56;2.35;;;1.20;;
49834;SDS011;35729;52.090;13.162;2023-04-03T11:04:30;4.57;;;1.90;;
49834;SDS011;35729;52.090;13.162;2023-04-03T11:07:03;5.13;;;1.20;;
49834;SDS011;35729;52.090;13.162;2023-04-03T11:09:39;2.45;;;1.23;;
49834;SDS011;35729;52.090;13.162;2023-04-03T11:12:12;3.22;;;1.33;;
49834;SDS011;35729;52.090;13.162;2023-04-03T11:14:44;1.83;;;1.00;;
49834;SDS011;35729;52.090;13.162;2023-04-03T11:17:19;3.10;;;1.42;;
49834;SDS011;35729;52.090;13.162;2023-04-03T11:19:59;5.80;;;1.27;;
49834;SDS011;35729;52.090;13.162;2023-04-03T11:22:35;4.57;;;1.48;;
49834;SDS011;35729;52.090;13.162;2023-04-03T11:25:13;3.80;;;1.13;;
49834;SDS011;35729;52.090;13.162;2023-04-03T11:27:48;4.15;;;1.50;;
49834;SDS011;35729;52.090;13.162;2023-04-03T11:30:19;2.47;;;1.00;;
49834;SDS011;35729;52.090;13.162;2023-04-03T11:32:55;2.70;;;1.00;;
49834;SDS011;35729;52.090;13.162;2023-04-03T11:35:34;2.95;;;1.48;;
49834;SDS011;35729;52.090;13.162;2023-04-03T11:38:03;2.58;;;1.02;;
49834;SDS011;35729;52.090;13.162;2023-04-03T11:40:34;2.78;;;1.13;;
49834;SDS011;35729;52.090;13.162;2023-04-03T11:43:07;3.28;;;1.20;;
49834;SDS011;35729;52.090;13.162;2023-04-03T11:45:52;1.88;;;1.00;;
49834;SDS011;35729;52.090;13.162;2023-04-03T12:09:34;8.32;;;2.08;;
49834;SDS011;35729;52.090;13.162;2023-04-03T12:12:21;4.05;;;2.08;;
49834;SDS011;35729;52.090;13.162;2023-04-03T12:14:55;4.10;;;1.45;;
49834;SDS011;35729;52.090;13.162;2023-04-03T12:17:39;6.32;;;1.60;;
49834;SDS011;35729;52.090;13.162;2023-04-03T12:26:00;5.45;;;1.77;;
49834;SDS011;35729;52.090;13.162;2023-04-03T12:28:37;5.97;;;1.70;;
49834;SDS011;35729;52.090;13.162;2023-04-03T12:33:51;3.75;;;1.20;;
49834;SDS011;35729;52.090;13.162;2023-04-03T12:39:12;6.05;;;3.03;;
49834;SDS011;35729;52.090;13.162;2023-04-03T12:41:55;4.15;;;1.75;;
49834;SDS011;35729;52.090;13.162;2023-04-03T12:44:35;2.65;;;1.52;;
49834;SDS011;35729;52.090;13.162;2023-04-03T12:47:21;3.58;;;1.83;;
49834;SDS011;35729;52.090;13.162;2023-04-03T12:49:53;3.25;;;1.38;;
49834;SDS011;35729;52.090;13.162;2023-04-03T12:52:28;4.07;;;1.40;;
49834;SDS011;35729;52.090;13.162;2023-04-03T12:55:01;2.97;;;1.30;;
49834;SDS011;35729;52.090;13.162;2023-04-03T12:57:33;5.10;;;1.48;;
49834;SDS011;35729;52.090;13.162;2023-04-03T13:03:01;4.90;;;1.55;;
49834;SDS011;35729;52.090;13.162;2023-04-03T13:05:32;4.53;;;1.23;;
49834;SDS011;35729;52.090;13.162;2023-04-03T13:08:02;4.70;;;1.48;;
49834;SDS011;35729;52.090;13.162;2023-04-03T13:10:49;2.25;;;1.00;;
49834;SDS011;35729;52.090;13.162;2023-04-03T13:13:25;1.65;;;1.02;;
49834;SDS011;35729;52.090;13.162;2023-04-03T13:15:53;3.42;;;1.83;;
49834;SDS011;35729;52.090;13.162;2023-04-03T13:18:30;5.60;;;3.33;;
49834;SDS011;35729;52.090;13.162;2023-04-03T13:21:01;4.28;;;1.88;;
49834;SDS011;35729;52.090;13.162;2023-04-03T13:23:34;8.25;;;3.70;;
49834;SDS011;35729;52.090;13.162;2023-04-03T13:26:04;3.45;;;1.63;;
49834;SDS011;35729;52.090;13.162;2023-04-03T13:28:36;4.60;;;2.28;;
49834;SDS011;35729;52.090;13.162;2023-04-03T13:31:08;4.50;;;1.98;;
49834;SDS011;35729;52.090;13.162;2023-04-03T13:33:52;2.28;;;1.23;;
49834;SDS011;35729;52.090;13.162;2023-04-03T13:36:24;4.75;;;1.92;;
49834;SDS011;35729;52.090;13.162;2023-04-03T13:38:59;4.30;;;1.80;;
49834;SDS011;35729;52.090;13.162;2023-04-03T13:41:33;4.30;;;1.42;;
49834;SDS011;35729;52.090;13.162;2023-04-03T13:44:23;5.18;;;1.83;;
49834;SDS011;35729;52.090;13.162;2023-04-03T13:46:57;2.22;;;1.20;;
49834;SDS011;35729;52.090;13.162;2023-04-03T13:49:29;4.60;;;2.03;;
49834;SDS011;35729;52.090;13.162;2023-04-03T13:51:59;2.13;;;1.42;;
49834;SDS011;35729;52.090;13.162;2023-04-03T13:54:29;3.33;;;1.80;;
49834;SDS011;35729;52.090;13.162;2023-04-03T13:57:00;3.28;;;1.67;;
49834;SDS011;35729;52.090;13.162;2023-04-03T13:59:33;3.92;;;1.40;;
49834;SDS011;35729;52.090;13.162;2023-04-03T14:02:10;2.38;;;1.30;;
49834;SDS011;35729;52.090;13.162;2023-04-03T14:04:47;3.25;;;1.65;;
49834;SDS011;35729;52.090;13.162;2023-04-03T14:07:23;1.95;;;1.20;;
49834;SDS011;35729;52.090;13.162;2023-04-03T14:09:51;4.43;;;1.75;;
49834;SDS011;35729;52.090;13.162;2023-04-03T14:12:24;2.42;;;1.10;;
49834;SDS011;35729;52.090;13.162;2023-04-03T14:14:58;3.78;;;1.50;;
49834;SDS011;35729;52.090;13.162;2023-04-03T14:17:28;4.25;;;1.60;;
49834;SDS011;35729;52.090;13.162;2023-04-03T14:19:57;3.17;;;1.50;;
49834;SDS011;35729;52.090;13.162;2023-04-03T14:22:28;3.42;;;2.40;;
49834;SDS011;35729;52.090;13.162;2023-04-03T14:24:58;4.75;;;1.20;;
49834;SDS011;35729;52.090;13.162;2023-04-03T14:27:28;5.70;;;1.52;;
49834;SDS011;35729;52.090;13.162;2023-04-03T14:30:00;1.85;;;1.00;;
49834;SDS011;35729;52.090;13.162;2023-04-03T14:32:31;3.35;;;1.20;;
49834;SDS011;35729;52.090;13.162;2023-04-03T14:35:00;3.85;;;1.33;;
49834;SDS011;35729;52.090;13.162;2023-04-03T14:37:29;8.02;;;3.08;;
49834;SDS011;35729;52.090;13.162;2023-04-03T14:39:59;8.63;;;3.67;;
49834;SDS011;35729;52.090;13.162;2023-04-03T14:42:30;6.63;;;2.40;;
49834;SDS011;35729;52.090;13.162;2023-04-03T14:45:04;7.47;;;3.38;;
49834;SDS011;35729;52.090;13.162;2023-04-03T14:47:36;7.65;;;4.13;;
49834;SDS011;35729;52.090;13.162;2023-04-03T14:50:11;13.85;;;7.43;;
49834;SDS011;35729;52.090;13.162;2023-04-03T14:52:42;9.38;;;4.18;;
49834;SDS011;35729;52.090;13.162;2023-04-03T14:55:11;6.13;;;2.08;;
49834;SDS011;35729;52.090;13.162;2023-04-03T14:57:42;4.32;;;2.45;;
49834;SDS011;35729;52.090;13.162;2023-04-03T15:00:15;6.43;;;3.00;;
49834;SDS011;35729;52.090;13.162;2023-04-03T15:02:46;8.52;;;3.42;;
49834;SDS011;35729;52.090;13.162;2023-04-03T15:05:15;5.70;;;3.70;;
49834;SDS011;35729;52.090;13.162;2023-04-03T15:07:45;7.78;;;2.90;;
49834;SDS011;35729;52.090;13.162;2023-04-03T15:10:18;3.95;;;2.28;;
49834;SDS011;35729;52.090;13.162;2023-04-03T15:12:49;8.00;;;2.47;;
49834;SDS011;35729;52.090;13.162;2023-04-03T15:15:20;4.13;;;1.92;;
49834;SDS011;35729;52.090;13.162;2023-04-03T15:17:51;6.88;;;1.75;;
49834;SDS011;35729;52.090;13.162;2023-04-03T15:20:23;12.65;;;5.03;;
49834;SDS011;35729;52.090;13.162;2023-04-03T15:22:55;7.82;;;3.13;;
49834;SDS011;35729;52.090;13.162;2023-04-03T15:25:25;7.15;;;3.00;;
49834;SDS011;35729;52.090;13.162;2023-04-03T15:27:54;4.10;;;1.40;;
49834;SDS011;35729;52.090;13.162;2023-04-03T15:30:27;2.95;;;1.60;;
49834;SDS011;35729;52.090;13.162;2023-04-03T15:32:56;4.70;;;2.25;;
49834;SDS011;35729;52.090;13.162;2023-04-03T15:35:24;9.20;;;4.50;;
49834;SDS011;35729;52.090;13.162;2023-04-03T15:37:53;16.55;;;9.27;;
49834;SDS011;35729;52.090;13.162;2023-04-03T15:40:21;9.52;;;6.00;;
49834;SDS011;35729;52.090;13.162;2023-04-03T15:42:50;20.23;;;9.38;;